Aeroporto :
LOGIN :

Iscrizione | Disclaimer

   EN    FR    IT 

 










Sommario :    VFR   VFR Marginale   IFR   IFR Intensivo   IFR Molto Intensivo
Visibilità : 
Base nubi : 
>= 8 km
>= 3000ft
5 / 8 km
1000 / 3000 ft
1500m / 5 km
500 / 1000 ft
800 / 1500m
200 / 500 ft
< 800m
< 200 ft
Simboli :   Temporali  Nebbia  Neve Forte  Precipitazioni Forti  Vento > 20 kt
SIGMETs :   Varie  Temporali  Ghiacco  Turbolenza  Onda orograficha  Ceneri Vulcaniche






- Altitudine del aeroporto : 362 ft
- Codice IATA : WAW


EPWA - Warsaw Okecie

ULTIMO METAR :
  • 240800Z 03008KT 350V060 9999 BKN026 06/02 Q1006 NOSIG

METARs OBSOLETI :
  • 240730Z 01008KT 340V060 9999 BKN026 05/01 Q1006 BECMG BKN012
  • 240700Z 36008KT 9999 BKN032 05/01 Q1007 BECMG BKN012
  • 240630Z 02008KT 9999 BKN033 05/00 Q1007 BECMG BKN012
  • 240600Z 04006KT 350V070 9999 BKN036 05/M00 Q1007 NOSIG
  • 240530Z 03005KT 340V070 9999 BKN041 05/M01 Q1008 NOSIG
  • 240500Z 03008KT CAVOK 04/M01 Q1008 NOSIG
  • 240430Z 02006KT 350V060 CAVOK 04/M01 Q1008 NOSIG
  • 240400Z 03006KT 360V060 CAVOK 04/M01 Q1009 NOSIG
  • 240330Z 04006KT CAVOK 04/M01 Q1009 NOSIG

TAF TAF EPWA
Valido dal 24 a 06 ore il 25 a 06 ore UTC


240530Z 2406/2506 03008KT 9999 BKN041
BECMG 2406/2409 -RA BKN014
PROB40
TEMPO 2409/2412 4000 RA BR BKN007
BECMG 2412/2414 BKN020
BECMG 2418/2421 29010KT BKN012
TEMPO 2421/2506 4000 RA BR BKN007



MetMap, La meteo Aeronautica in un colpo d'occhio ! - Copyright ORBIFLY Dicembre 2007 - Disclaimer

ORBIFLY MET'MAP TEAM :

Programmazione e sviluppo : Alexandra Zaïnal
Concezione : Baudouin d'Aumeries
Supporto tecnico e logistico : Manuel Goepfert
Aiuto : Marc-Olivier Méhu
Aiuto per la traduzione : Arnaldo La Scala




FONTI E CREDITI :

   NOAA